โตเกียว, ประเทศญี่ปุ่น

01:49 PM JST วัน ตุลาคม 01, 2016 (GMT +0900)
Tokyo (Haneda) International | | Change Station

Elev 26 ft 35.55 °N, 139.78 °E | Updated 9 minutes ago

Light Rain
ฝนตกเบาบาง
68 ฟาเรนไฮน์
Feels Like 68 ฟาเรนไฮน์
N
8
ลม ความผันแปร ลม from ทางทิศเหนือ

วันนี้
High -- | Low -- ฟาเรนไฮน์
--% Chance of Precip.
Yesterday
High -- | Low -- ฟาเรนไฮน์
Precip. -- นิ้ว
ความดัน 30.06 นิ้ว
ทัศนวิสัย 3.7 ไมล์
เมฆ Few 500 ft
มีเมฆคลุมเป็นบางส่วน 900 ft
มีเมฆคลุมเป็นส่วนใหญ่ 1500 ft
อุณหภูมิที่อากาศอาจจับตัวเป็นหยาดน้ำค้าง 66 ฟาเรนไฮน์
ความชื้น 94%
Rainfall 0.00 นิ้ว
Snow Depth Not available.
5:35 AM 5:24 PM
พระจันทร์ใหม่, 0% visible
SPECI RJTT 010440Z 01007KT 6000 -RA FEW005 SCT009 BKN015 20/19 Q1018 RMK 1ST005 4ST009 6SC015 A3007
ความดัน 30.06 นิ้ว
ทัศนวิสัย 3.7 ไมล์
เมฆ Few 500 ft
มีเมฆคลุมเป็นบางส่วน 900 ft
มีเมฆคลุมเป็นส่วนใหญ่ 1500 ft
อุณหภูมิที่อากาศอาจจับตัวเป็นหยาดน้ำค้าง 66 ฟาเรนไฮน์
ความชื้น 94%
Rainfall 0.00 นิ้ว
Snow Depth Not available.
5:35 AM 5:24 PM
พระจันทร์ใหม่, 0% visible
SPECI RJTT 010440Z 01007KT 6000 -RA FEW005 SCT009 BKN015 20/19 Q1018 RMK 1ST005 4ST009 6SC015 A3007

10-Day Weather Forecast

No radar image for this location.
×

Almanac

ดาราศาสตร์

Oct. 01, 2016 Rise Set
Actual Time
Civil Twilight
Nautical Twilight
Astronomical Twilight
Moon
Length Of Visible Light
ความยาวของวัน
Tomorrow will be .
, % of the Moon is Illuminated

Today's Extremes

Country Highs Country Lows

Community

WunderPhotos

Upload Photos

1,942,894 photos uploaded!

WunderBlog® & News

Nearby

Air Quality

  Air Quality AQ Index Pollutant
Not available.

Snow Depth

Station Depth Elevation

Earthquake Activity

City Distance Mag. Time & Date
Minimum magnitude displayed is 2.5.

Coastal Water Temperatures

สถานที่ อุณหภูมิ

Stations

Nearby Weather Stations

Station Location Temp ลมหนาว อุณหภูมิที่อากาศอาจจับตัวเป็นหยาดน้ำค้าง ความชื้น ลม Precip. Elev ปรับปรุงล่าสุด Type